Pepperell, Massachusetts
Current Conditions -  °F | °C
As of 12:52 AM on Thursday 29 Jan 2015 (Local Time) from KFIT Reporting Station
Clear Clear  
Wind Chill: -3°   Ceiling: Unl
Heat Index: -3°   Visibility: 10mi
Dew Point: -6°   Wind: 0mph
Humidity: 87%   Direction: NA
Pressure: 30.25"   Gusts: NA
Location:  42.66°N, 71.6°W
Report Text: KFIT 290552Z AUTO 00000KT 10SM CLR M19/M21 A3025 RMK AO2 SLP250 I1000 I6000 T11941211 11056 21194 51018
Loading
Personal Weather Stations






























Interactive Weather Map New forecast layout! Learn more

10-Day Weather Forecast

Advertisements
Track Severe Weather on mobile